Bethel, Texas
Current Conditions -  °F | °C
As of 12:15 AM on Wednesday 22 Oct 2014 (Local Time) from KCOM Reporting Station
Clear Clear  
Wind Chill: 67°   Ceiling: Unl
Heat Index: 67°   Visibility: 10mi
Dew Point: 51°   Wind: 7mph
Humidity: 57%   Direction: 150°SSE
Pressure: 30.08"   Gusts: NA
Location:  31.7639°N, 99.8991°W
Report Text: KCOM 220515Z AUTO 15006KT 10SM CLR 20/11 A3008 RMK AO2 T01950107
Loading
Personal Weather Stations






























Interactive Weather Map
Tropical Storm Tracking
New forecast layout! Learn more

10-Day Weather Forecast

Advertisements
Track Severe Weather on mobile